createdAt,value
2022-11-19T00:03:24.094Z,12.07
2022-11-19T00:08:20.282Z,14.35
2022-11-19T00:13:14.848Z,15.02
2022-11-19T00:18:08.986Z,16.52
2022-11-19T00:23:03.052Z,15.35
2022-11-19T00:28:00.942Z,15.40
2022-11-19T00:32:54.616Z,19.10
2022-11-19T00:37:48.979Z,13.55
2022-11-19T00:43:02.670Z,17.67
2022-11-19T00:47:56.665Z,13.93
2022-11-19T00:52:50.402Z,17.40
2022-11-19T00:57:44.206Z,18.50
2022-11-19T01:02:37.944Z,24.27
2022-11-19T01:07:31.931Z,27.63
2022-11-19T01:12:25.716Z,25.63
2022-11-19T01:22:13.189Z,29.77
2022-11-19T01:27:07.360Z,23.70
2022-11-19T01:32:01.533Z,24.63
2022-11-19T01:36:54.950Z,22.92
2022-11-19T01:41:48.050Z,24.83
2022-11-19T01:51:41.676Z,24.92
2022-11-19T01:56:36.928Z,23.23
2022-11-19T02:01:30.750Z,21.08
2022-11-19T02:06:24.538Z,18.45
2022-11-19T02:11:42.972Z,12.60
2022-11-19T02:16:58.798Z,12.40
2022-11-19T02:22:27.535Z,10.35
2022-11-19T02:27:32.397Z,10.63
2022-11-19T02:32:35.605Z,10.18
2022-11-19T02:37:44.285Z,10.57
2022-11-19T02:42:56.115Z,11.45
2022-11-19T02:47:53.370Z,12.30
2022-11-19T02:52:47.606Z,14.38
2022-11-19T02:57:47.076Z,13.55
2022-11-19T03:03:01.983Z,13.63
2022-11-19T03:07:55.446Z,11.63
2022-11-19T03:13:52.814Z,11.30
2022-11-19T03:18:52.318Z,12.35
2022-11-19T03:23:54.221Z,12.02
2022-11-19T03:28:49.698Z,13.05
2022-11-19T03:33:45.933Z,15.20
2022-11-19T03:38:45.024Z,13.23
2022-11-19T03:43:40.570Z,11.73
2022-11-19T03:48:34.622Z,16.42
2022-11-19T03:53:28.545Z,15.65
2022-11-19T03:58:24.969Z,13.50
2022-11-19T04:03:23.061Z,16.25
2022-11-19T04:08:16.633Z,13.95
2022-11-19T04:13:10.054Z,15.15
2022-11-19T04:22:57.932Z,14.30
2022-11-19T04:27:52.254Z,17.33
2022-11-19T04:32:45.681Z,17.00
2022-11-19T04:37:39.144Z,16.23
2022-11-19T04:47:26.609Z,12.95
2022-11-19T04:52:20.963Z,15.40
2022-11-19T04:57:15.100Z,14.02
2022-11-19T05:02:08.830Z,15.40
2022-11-19T05:07:03.416Z,16.88
2022-11-19T05:11:56.988Z,11.35
2022-11-19T05:16:51.311Z,11.57
2022-11-19T05:21:45.039Z,8.82
2022-11-19T05:26:39.296Z,7.63
2022-11-19T05:31:33.490Z,10.95
2022-11-19T05:36:26.542Z,8.88
2022-11-19T05:41:19.488Z,8.48
2022-11-19T05:51:07.222Z,11.10
2022-11-19T05:56:01.588Z,16.77
2022-11-19T06:00:56.778Z,12.60
2022-11-19T06:05:50.967Z,10.70
2022-11-19T06:10:44.686Z,14.43
2022-11-19T06:15:38.318Z,12.63
2022-11-19T06:20:31.717Z,12.55
2022-11-19T06:25:25.488Z,13.07
2022-11-19T06:30:19.825Z,11.60
2022-11-19T06:35:14.408Z,10.32
2022-11-19T06:40:10.175Z,12.80
2022-11-19T06:45:23.577Z,11.77
2022-11-19T06:50:18.974Z,15.98
2022-11-19T06:55:14.542Z,12.40
2022-11-19T07:00:10.069Z,18.15
2022-11-19T07:05:04.116Z,13.60
2022-11-19T07:09:58.528Z,13.00
2022-11-19T07:14:52.390Z,13.52
2022-11-19T07:19:46.788Z,14.85
2022-11-19T07:24:40.648Z,10.82
2022-11-19T07:29:34.994Z,10.85
2022-11-19T07:35:00.798Z,10.82
2022-11-19T07:39:54.559Z,10.90
2022-11-19T07:44:54.503Z,10.55
2022-11-19T07:49:49.290Z,12.40
2022-11-19T07:54:43.674Z,10.98
2022-11-19T07:59:37.877Z,13.48
2022-11-19T08:04:32.277Z,15.25
2022-11-19T08:09:31.573Z,16.63
2022-11-19T08:14:30.073Z,18.35
2022-11-19T08:19:31.252Z,37.03
2022-11-19T08:24:39.641Z,57.80
2022-11-19T08:29:33.265Z,71.35
2022-11-19T08:34:27.072Z,70.95
2022-11-19T08:39:20.627Z,70.65
2022-11-19T08:44:14.352Z,79.28
2022-11-19T08:49:08.342Z,80.18
2022-11-19T08:54:20.108Z,116.70
2022-11-19T08:59:14.814Z,109.78
2022-11-19T09:04:08.914Z,87.32
2022-11-19T09:09:04.159Z,93.55
2022-11-19T09:13:58.616Z,90.88
2022-11-19T09:18:53.230Z,92.05
2022-11-19T09:23:47.654Z,93.10
2022-11-19T09:28:41.352Z,110.47
2022-11-19T09:33:35.682Z,93.35
2022-11-19T09:38:31.605Z,72.13
2022-11-19T09:43:50.488Z,67.82
2022-11-19T09:48:46.174Z,48.30
2022-11-19T09:53:52.277Z,38.67
2022-11-19T09:58:46.159Z,28.05
2022-11-19T10:04:09.097Z,23.73
2022-11-19T10:09:13.884Z,19.92
2022-11-19T10:14:48.855Z,14.48
2022-11-19T10:20:12.665Z,13.40
2022-11-19T10:30:08.220Z,15.32
2022-11-19T10:35:06.551Z,14.68
2022-11-19T10:40:18.567Z,13.13
2022-11-19T10:45:18.249Z,16.63
2022-11-19T10:50:23.904Z,20.17
2022-11-19T10:55:42.181Z,23.25
2022-11-19T11:00:37.665Z,20.90
2022-11-19T11:05:31.518Z,19.58
2022-11-19T11:10:48.088Z,17.45
2022-11-19T11:16:11.445Z,21.35
2022-11-19T11:21:04.720Z,18.55
2022-11-19T11:26:03.243Z,19.10
2022-11-19T11:31:47.860Z,18.55
2022-11-19T11:36:41.529Z,20.45
2022-11-19T11:47:13.797Z,19.85
2022-11-19T11:52:10.293Z,26.52
2022-11-19T11:57:19.960Z,30.63
2022-11-19T12:02:34.678Z,28.40
2022-11-19T12:07:55.912Z,26.83
2022-11-19T12:13:23.751Z,32.63
2022-11-19T12:19:11.094Z,34.10
2022-11-19T12:24:20.563Z,36.08
2022-11-19T12:29:25.999Z,30.38
2022-11-19T12:34:53.501Z,38.10
2022-11-19T12:39:59.876Z,32.60
2022-11-19T12:45:13.264Z,28.77
2022-11-19T12:50:15.723Z,32.13
2022-11-19T12:55:48.708Z,29.77
2022-11-19T13:00:52.051Z,33.92
2022-11-19T13:06:31.169Z,39.88
2022-11-19T13:11:36.672Z,39.67
2022-11-19T13:16:47.883Z,74.93
2022-11-19T13:21:49.199Z,40.28
2022-11-19T13:26:42.770Z,38.58
2022-11-19T13:31:59.791Z,34.60
2022-11-19T13:37:02.600Z,35.08
2022-11-19T13:42:14.667Z,38.87
2022-11-19T13:47:26.154Z,37.90
2022-11-19T13:52:32.434Z,36.25
2022-11-19T13:57:32.096Z,36.85
2022-11-19T14:02:48.651Z,32.67
2022-11-19T14:07:54.459Z,40.50
2022-11-19T14:13:05.133Z,44.45
2022-11-19T14:18:41.623Z,39.47
2022-11-19T14:24:07.895Z,45.47
2022-11-19T14:29:09.886Z,48.30
2022-11-19T14:34:27.207Z,46.83
2022-11-19T14:39:32.485Z,53.83
2022-11-19T14:44:30.994Z,59.70
2022-11-19T14:49:40.554Z,55.70
2022-11-19T14:54:45.631Z,63.70
2022-11-19T14:59:41.805Z,61.05
2022-11-19T15:04:39.719Z,58.45
2022-11-19T15:10:11.909Z,63.25
2022-11-19T15:15:19.981Z,62.10
2022-11-19T15:20:34.402Z,65.97
2022-11-19T15:26:01.690Z,57.03
2022-11-19T15:31:27.153Z,71.68
2022-11-19T15:36:35.969Z,73.78
2022-11-19T15:41:32.756Z,79.05
2022-11-19T15:46:40.352Z,86.68
2022-11-19T15:51:40.975Z,83.88
2022-11-19T15:56:44.419Z,83.05
2022-11-19T16:01:38.175Z,82.57
2022-11-19T16:06:31.579Z,82.82
2022-11-19T16:11:47.374Z,73.07
2022-11-19T16:16:59.086Z,70.22
2022-11-19T16:21:56.216Z,74.90
2022-11-19T16:26:50.223Z,68.57
2022-11-19T16:31:44.767Z,59.10
2022-11-19T16:36:38.367Z,61.92
2022-11-19T16:41:50.299Z,61.38
2022-11-19T16:46:44.795Z,63.35
2022-11-19T16:51:39.351Z,67.20
2022-11-19T16:56:37.182Z,68.15
2022-11-19T17:01:30.975Z,68.97
2022-11-19T17:06:26.582Z,72.40
2022-11-19T17:11:44.719Z,67.95
2022-11-19T17:16:48.375Z,71.53
2022-11-19T17:21:51.162Z,72.80
2022-11-19T17:26:48.701Z,72.13
2022-11-19T17:31:48.948Z,80.60
2022-11-19T17:36:44.267Z,156.88
2022-11-19T17:41:56.331Z,94.78
2022-11-19T17:46:54.469Z,94.28
2022-11-19T17:51:48.627Z,111.45
2022-11-19T17:56:43.889Z,85.20
2022-11-19T18:01:37.932Z,372.45
2022-11-19T18:11:26.378Z,146.18
2022-11-19T18:16:25.702Z,138.00
2022-11-19T18:21:22.090Z,178.60
2022-11-19T18:26:19.101Z,98.20
2022-11-19T18:31:24.195Z,72.45
2022-11-19T18:36:18.467Z,70.60
2022-11-19T18:41:13.789Z,64.63
2022-11-19T18:46:08.541Z,67.85
2022-11-19T18:51:02.951Z,67.47
2022-11-19T18:55:57.594Z,70.18
2022-11-19T19:00:51.641Z,66.72
2022-11-19T19:05:45.192Z,60.80
2022-11-19T19:10:46.909Z,61.20
2022-11-19T19:15:39.950Z,60.10
2022-11-19T19:20:33.950Z,62.30
2022-11-19T19:25:28.102Z,59.70
2022-11-19T19:30:22.551Z,70.32
2022-11-19T19:35:16.913Z,59.65
2022-11-19T19:40:12.817Z,70.85
2022-11-19T19:45:09.203Z,65.13
2022-11-19T19:50:03.284Z,79.40
2022-11-19T19:54:57.470Z,63.47
2022-11-19T19:59:51.244Z,75.38
2022-11-19T20:04:45.226Z,80.40
2022-11-19T20:09:39.605Z,67.47
2022-11-19T20:14:33.727Z,84.75
2022-11-19T20:19:27.857Z,66.00
2022-11-19T20:24:23.117Z,59.67
2022-11-19T20:29:18.614Z,63.58
2022-11-19T20:34:19.652Z,58.60
2022-11-19T20:39:13.751Z,61.65
2022-11-19T20:44:28.006Z,64.05
2022-11-19T20:49:27.455Z,70.30
2022-11-19T20:54:22.478Z,172.25
2022-11-19T20:59:17.059Z,135.35
2022-11-19T21:04:12.213Z,111.35
2022-11-19T21:09:06.513Z,97.43
2022-11-19T21:14:00.335Z,66.88
2022-11-19T21:18:54.361Z,56.63
2022-11-19T21:23:48.388Z,54.55
2022-11-19T21:28:41.999Z,57.72
2022-11-19T21:33:36.126Z,61.53
2022-11-19T21:38:29.913Z,55.72
2022-11-19T21:43:24.994Z,58.05
2022-11-19T21:48:18.176Z,54.65
2022-11-19T21:53:12.790Z,53.08
2022-11-19T21:58:07.644Z,56.03
2022-11-19T22:03:02.088Z,54.05
2022-11-19T22:07:55.575Z,59.28
2022-11-19T22:12:49.391Z,56.17
2022-11-19T22:17:42.967Z,53.72
2022-11-19T22:22:35.969Z,54.03
2022-11-19T22:27:30.360Z,52.15
2022-11-19T22:32:23.607Z,57.72
2022-11-19T22:37:17.417Z,56.72
2022-11-19T22:42:10.662Z,60.85
2022-11-19T22:47:04.313Z,56.77
2022-11-19T22:51:57.881Z,56.97
2022-11-19T22:56:51.510Z,59.30
2022-11-19T23:01:45.520Z,58.92
2022-11-19T23:06:40.728Z,56.70
2022-11-19T23:11:52.758Z,53.58
2022-11-19T23:16:47.492Z,57.83
2022-11-19T23:21:41.692Z,53.33
2022-11-19T23:26:35.204Z,54.67
2022-11-19T23:31:48.442Z,51.30
2022-11-19T23:36:46.590Z,48.05
2022-11-19T23:41:40.665Z,48.50
2022-11-19T23:51:33.248Z,41.58
2022-11-19T23:56:31.411Z,46.90
